Monday, February 18, 2019, 5:34 AM EST
Back to Local

KAKR, Akron Fulton International

Location: Akron, OH, United States Lat: 41.033
Local Time: 5:34 AM EST (10:34 GMT) Lon: -81.467
Time Zone: US/Eastern Elev: 1069 ft

Show me the last for .
Show Decoded

2019-02-18 04:54 METAR KAKR 180954Z AUTO 30007KT 10SM OVC010 M03/M06 A2989 RMK AO2 CIG 005V013
                 SLP134 I1001 T10331056 =
2019-02-18 04:07 METAR KAKR 180907Z AUTO 32011G17KT 7SM OVC005 M03/M05 A2987 RMK AO2 T10331050 =
2019-02-18 03:54 METAR KAKR 180854Z AUTO 31012KT 7SM OVC004 M03/M04 A2986 RMK AO2 SLP121
                 T10281044 53033 =
2019-02-18 03:22 METAR KAKR 180822Z AUTO 30010KT 6SM BR OVC004 M02/M04 A2984 RMK AO2 CIG 003V007
                 T10221039 =
2019-02-18 02:54 METAR KAKR 180754Z AUTO 28013KT 10SM OVC006 M01/M03 A2982 RMK AO2 SLP107
                 T10111033 =
2019-02-18 01:54 METAR KAKR 180654Z AUTO 26014KT 10SM OVC009 M01/M03 A2978 RMK AO2 CIG 007V013
                 SLP095 T10111033 =
2019-02-18 01:47 METAR KAKR 180647Z AUTO 26012KT 10SM BKN009 OVC014 M01/M03 A2978 RMK AO2 CIG
                 007V011 T10111033 =
2019-02-18 01:10 METAR KAKR 180610Z AUTO 27015KT 10SM OVC011 M01/M03 A2977 RMK AO2 CIG 005V013
                 T10061028 =
2019-02-18 00:54 METAR KAKR 180554Z AUTO 27012KT 9SM OVC007 M01/M02 A2976 RMK AO2 CIG 004V011
                 SLP085 I6004 T10061022 10000 21006 53017 =
2019-02-18 00:20 METAR KAKR 180520Z AUTO 28007KT 7SM OVC005 M01/M02 A2974 RMK AO2 CIG 004V007
                 T10061017 =
2019-02-17 23:54 METAR KAKR 180454Z AUTO 29008KT 4SM BR OVC004 M01/M02 A2973 RMK AO2 CIG 003V007
                 SLP077 I1002 T10061017 400001044 =
2019-02-17 22:54 METAR KAKR 180354Z AUTO 29007KT 2SM BR OVC003 00/M01 A2972 RMK AO2 SLP074 I1000
                 T00001011 =
2019-02-17 22:31 METAR KAKR 180331Z AUTO 30004KT 2SM BR OVC003 00/M01 A2972 RMK AO2 T00001011 =
2019-02-17 22:16 METAR KAKR 180316Z AUTO 32003KT 1 3/4SM BR OVC003 00/M01 A2971 RMK AO2 T00001011
                 =
2019-02-17 21:54 METAR KAKR 180254Z AUTO 34003KT 2SM BR OVC003 00/M01 A2971 RMK AO2 SLP069 I1001
                 I3002 T00001011 56004 =
2019-02-17 21:05 METAR KAKR 180205Z AUTO 00000KT 2 1/2SM BR OVC004 00/M01 A2970 RMK AO2 T00001011
                 =
2019-02-17 20:54 METAR KAKR 180154Z AUTO 00000KT 4SM BR OVC005 00/M01 A2971 RMK AO2 SLP069
                 T00001011 =
2019-02-17 19:54 METAR KAKR 180054Z AUTO 06004KT 3SM BR OVC006 00/M02 A2971 RMK AO2 SLP071 I1001
                 T00001017 =
2019-02-17 18:54 METAR KAKR 172354Z AUTO VRB03KT 4SM BR OVC008 00/M02 A2972 RMK AO2 CIG 005V011
                 SLP075 60000 I1001 I6001 T00001022 10000 21006 56016 =
2019-02-17 18:33 METAR KAKR 172333Z AUTO 06005KT 3SM BR OVC009 M01/M02 A2972 RMK AO2 CIG 005V012
                 I1001 T10061022 =
2019-02-17 18:23 METAR KAKR 172323Z AUTO 09004KT 2 1/2SM BR BKN007 OVC012 M01/M02 A2973 RMK AO2
                 CIG 006V009 I1001 T10061022 =
2019-02-17 18:14 METAR KAKR 172314Z AUTO 07003KT 3SM BR BKN010 OVC018 M01/M02 A2973 RMK AO2 I1000
                 T10061022 =
2019-02-17 17:54 METAR KAKR 172254Z AUTO 08005KT 6SM HZ OVC020 00/M03 A2973 RMK AO2 SLP079
                 T00001033 =
2019-02-17 16:54 METAR KAKR 172154Z AUTO 09006KT 10SM OVC022 00/M05 A2972 RMK AO2 UPE00 SLP076
                 P0000 T00001050 =
2019-02-17 16:32 METAR KAKR 172132Z AUTO 08006KT 10SM BKN022 OVC034 00/M06 A2975 RMK AO2 UPE00
                 P0000 T00001056 =
2019-02-17 15:54 METAR KAKR 172054Z AUTO 07008KT 10SM UP SCT028 BKN034 OVC045 00/M05 A2977 RMK
                 AO2 UPE1957B32SNB1957E32B34E43 SLP090 P0000 60000 T00001050 58023 =
2019-02-17 15:29 METAR KAKR 172029Z AUTO 08009KT 6SM -SN FEW028 BKN037 OVC047 00/M06 A2978 RMK
                 AO2 UPE1957SNB1957 P0000 T00001056 =
2019-02-17 15:03 METAR KAKR 172003Z AUTO 07007KT 4SM -SN OVC029 00/M06 A2981 RMK AO2
                 UPE1957SNB1957 P0000 T00001061 =
2019-02-17 14:54 METAR KAKR 171954Z AUTO 05008KT 10SM UP OVC031 00/M07 A2982 RMK AO2 UPB08E18B45
                 SLP108 P0000 T00001067 =
2019-02-17 14:32 METAR KAKR 171932Z AUTO 04008KT 10SM SCT023 OVC031 00/M07 A2983 RMK AO2 UPB08E18
                 P0000 T00001067 =
2019-02-17 13:54 METAR KAKR 171854Z AUTO 07006KT 10SM OVC028 00/M07 A2983 RMK AO2 SLP112
                 T00001067 =
2019-02-17 13:34 METAR KAKR 171834Z AUTO 05005KT 10SM OVC027 00/M07 A2985 RMK AO2 PRESRR
                 T00001072 =
2019-02-17 12:54 METAR KAKR 171754Z AUTO 07007KT 10SM OVC030 00/M07 A2984 RMK AO2 SLP114
                 T00001072 10000 21044 58031 =
2019-02-17 11:54 METAR KAKR 171654Z AUTO 09006KT 10SM OVC060 M01/M08 A2989 RMK AO2 SLP133
                 T10111078 =
2019-02-17 10:54 METAR KAKR 171554Z AUTO VRB05KT 10SM BKN070 OVC090 M02/M08 A2992 RMK AO2 SLP143
                 T10171083 =
2019-02-17 09:54 METAR KAKR 171454Z AUTO 12003KT 10SM OVC075 M02/M08 A2993 RMK AO2 SLP147
                 T10171083 58007 =
2019-02-17 08:54 METAR KAKR 171354Z AUTO 07006KT 10SM BKN080 M03/M09 A2997 RMK AO2 SLP162
                 T10281089 =
2019-02-17 07:54 METAR KAKR 171254Z AUTO 07009KT 10SM CLR M04/M09 A2994 RMK AO2 PRESFR SLP153
                 T10441089 =
2019-02-17 06:54 METAR KAKR 171154Z AUTO 09006KT 10SM CLR M04/M09 A2995 RMK AO2 SLP156 T10441089
                 11033 21044 58018 =
2019-02-17 06:10 METAR KAKR 171110Z AUTO 09005KT 10SM SCT019 M04/M09 A2998 RMK AO2 T10391089 =
2019-02-17 05:54 METAR KAKR 171054Z AUTO 08006KT 10SM OVC019 M04/M09 A2999 RMK AO2 SLP167
                 T10391089 =

Support USWX by starting your Amazon purchase here.